ZKROG NZWU-NZAR

Flight info

Callsign ZKROG
Flight time 1h 40m
Altitude 10000
Route NZWU NZAR
Aircraft C182/L-S/L

Departure

Time 2026-04-19 04:51
Airport Wanganui Airport (NZWU)

Arrival

Time 2026-04-19 06:31
Airport Ardmore Airport (NZAR)
Time Latitude Longitude Altitude Speed Heading
2026-04-19 04:41 -39.96049 175.02307 21 ft 0 kts 128°
2026-04-19 04:46 -39.96052 175.02302 21 ft 0 kts 265°
2026-04-19 04:47 -39.96067 175.02307 21 ft 10 kts 145°
2026-04-19 04:47 -39.96134 175.02368 23 ft 12 kts 127°
2026-04-19 04:47 -39.96199 175.02345 23 ft 12 kts 216°
2026-04-19 04:48 -39.96275 175.02328 23 ft 12 kts 130°
2026-04-19 04:48 -39.96335 175.02432 25 ft 24 kts 130°
2026-04-19 04:48 -39.96382 175.02518 26 ft 8 kts 242°
2026-04-19 04:48 -39.96381 175.02508 26 ft 0 kts 310°
2026-04-19 04:49 -39.96379 175.02505 26 ft 0 kts 307°
2026-04-19 04:50 -39.96372 175.02490 27 ft 14 kts 303°
2026-04-19 04:50 -39.96196 175.02181 36 ft 66 kts 304°
2026-04-19 04:50 -39.95904 175.01669 257 ft 75 kts 302°
2026-04-19 04:50 -39.95573 175.01034 468 ft 89 kts 301°
2026-04-19 04:51 -39.95225 175.00333 718 ft 97 kts 303°
2026-04-19 04:51 -39.94862 174.99593 1007 ft 97 kts 305°
2026-04-19 04:51 -39.94452 174.98911 1259 ft 96 kts 329°
2026-04-19 04:51 -39.93818 174.99149 1484 ft 110 kts 33°
2026-04-19 04:52 -39.93282 174.99848 1739 ft 108 kts 30°
2026-04-19 04:52 -39.92760 175.00536 1993 ft 104 kts 30°
2026-04-19 04:52 -39.92267 175.01215 2235 ft 102 kts 31°
2026-04-19 04:52 -39.91774 175.01843 2476 ft 92 kts 17°
2026-04-19 04:53 -39.91235 175.02168 2720 ft 81 kts
2026-04-19 04:53 -39.90702 175.02405 2963 ft 80 kts
2026-04-19 04:53 -39.90186 175.02658 3206 ft 78 kts
2026-04-19 04:53 -39.89646 175.02918 3351 ft 87 kts
2026-04-19 04:54 -39.89056 175.03159 3465 ft 89 kts 359°
2026-04-19 04:54 -39.88453 175.03425 3503 ft 98 kts
2026-04-19 04:54 -39.87773 175.03670 3501 ft 98 kts 356°
2026-04-19 04:54 -39.87094 175.03726 3506 ft 100 kts 351°
2026-04-19 04:55 -39.86385 175.03755 3509 ft 104 kts 351°
2026-04-19 04:55 -39.85646 175.03781 3503 ft 107 kts 351°
2026-04-19 04:55 -39.84900 175.03809 3504 ft 108 kts 351°
2026-04-19 04:55 -39.84151 175.03829 3478 ft 104 kts 352°
2026-04-19 04:56 -39.83455 175.03838 3498 ft 103 kts 351°
2026-04-19 04:56 -39.82728 175.03857 3491 ft 105 kts 351°
2026-04-19 04:56 -39.81998 175.03885 3498 ft 103 kts 351°
2026-04-19 04:56 -39.81292 175.03928 3668 ft 99 kts 350°
2026-04-19 04:57 -39.80637 175.04012 3874 ft 92 kts 351°
2026-04-19 04:57 -39.80011 175.04087 4071 ft 89 kts 350°
2026-04-19 04:57 -39.79425 175.04192 4259 ft 82 kts 351°
2026-04-19 04:57 -39.78872 175.04299 4457 ft 79 kts 351°
2026-04-19 04:58 -39.78342 175.04397 4643 ft 75 kts 351°
2026-04-19 04:58 -39.77828 175.04493 4844 ft 75 kts 351°
2026-04-19 04:58 -39.77321 175.04598 5039 ft 73 kts 351°
2026-04-19 04:58 -39.76825 175.04706 5243 ft 73 kts 351°
2026-04-19 04:59 -39.76324 175.04802 5430 ft 71 kts 352°
2026-04-19 04:59 -39.75878 175.04871 5633 ft 58 kts 347°
2026-04-19 04:59 -39.75466 175.05058 5752 ft 59 kts
2026-04-19 04:59 -39.75114 175.05243 5923 ft 56 kts 360°
2026-04-19 05:00 -39.74808 175.05423 5962 ft 39 kts 347°
2026-04-19 05:00 -39.74399 175.05658 5929 ft 83 kts 359°
2026-04-19 05:00 -39.73776 175.05921 5943 ft 102 kts 357°
2026-04-19 05:00 -39.73090 175.06184 6008 ft 104 kts 357°
2026-04-19 05:01 -39.72384 175.06434 6051 ft 106 kts 358°
2026-04-19 05:01 -39.71662 175.06656 6077 ft 106 kts 358°
2026-04-19 05:01 -39.70977 175.06876 6102 ft 99 kts 358°
2026-04-19 05:01 -39.70300 175.07101 6138 ft 104 kts 358°
2026-04-19 05:02 -39.69602 175.07325 6156 ft 102 kts 358°
2026-04-19 05:02 -39.68910 175.07563 6188 ft 104 kts 358°
2026-04-19 05:02 -39.68189 175.07791 6207 ft 108 kts 358°
2026-04-19 05:02 -39.67478 175.08014 6245 ft 102 kts 358°
2026-04-19 05:03 -39.66814 175.08239 6345 ft 98 kts 358°
2026-04-19 05:03 -39.66168 175.08461 6426 ft 92 kts 356°
2026-04-19 05:03 -39.65566 175.08683 6530 ft 89 kts 358°
2026-04-19 05:03 -39.64943 175.08907 6625 ft 95 kts 358°
2026-04-19 05:04 -39.64292 175.09124 6721 ft 98 kts 357°
2026-04-19 05:04 -39.63638 175.09348 6829 ft 97 kts 358°
2026-04-19 05:04 -39.62997 175.09574 6923 ft 93 kts 358°
2026-04-19 05:04 -39.62358 175.09790 7017 ft 95 kts 357°
2026-04-19 05:05 -39.61727 175.10005 7111 ft 91 kts 355°
2026-04-19 05:05 -39.61126 175.09998 7204 ft 85 kts 345°
2026-04-19 05:05 -39.60561 175.09963 7337 ft 81 kts 345°
2026-04-19 05:05 -39.59988 175.10011 7442 ft 80 kts 351°
2026-04-19 05:06 -39.59445 175.10089 7560 ft 77 kts 351°
2026-04-19 05:06 -39.58914 175.10170 7694 ft 79 kts 351°
2026-04-19 05:06 -39.58362 175.10254 7813 ft 79 kts 351°
2026-04-19 05:06 -39.57833 175.10333 7933 ft 74 kts 350°
2026-04-19 05:07 -39.57333 175.10418 8061 ft 71 kts 350°
2026-04-19 05:07 -39.56849 175.10514 8181 ft 70 kts 350°
2026-04-19 05:07 -39.56376 175.10610 8301 ft 68 kts 350°
2026-04-19 05:07 -39.55902 175.10792 8422 ft 72 kts 358°
2026-04-19 05:08 -39.55431 175.11006 8554 ft 73 kts 357°
2026-04-19 05:08 -39.54436 175.11425 8818 ft 78 kts 357°
2026-04-19 05:08 -39.53926 175.11635 8947 ft 76 kts 357°
2026-04-19 05:09 -39.53419 175.11851 9085 ft 77 kts 357°
2026-04-19 05:09 -39.52915 175.12055 9213 ft 76 kts 357°
2026-04-19 05:09 -39.52401 175.12255 9341 ft 77 kts 357°
2026-04-19 05:09 -39.51894 175.12456 9464 ft 74 kts 357°
2026-04-19 05:10 -39.51435 175.12654 9585 ft 66 kts 357°
2026-04-19 05:10 -39.51009 175.12858 9650 ft 67 kts 357°
2026-04-19 05:10 -39.50563 175.13059 9700 ft 69 kts 357°
2026-04-19 05:10 -39.50094 175.13261 9744 ft 72 kts 356°
2026-04-19 05:11 -39.49621 175.13462 9797 ft 71 kts 355°
2026-04-19 05:11 -39.49157 175.13658 9844 ft 70 kts 356°
2026-04-19 05:11 -39.48682 175.13843 9895 ft 72 kts 357°
2026-04-19 05:11 -39.48212 175.14019 9937 ft 69 kts 356°
2026-04-19 05:12 -39.47748 175.14204 9990 ft 72 kts 358°
2026-04-19 05:12 -39.47268 175.14385 9996 ft 72 kts 356°
2026-04-19 05:12 -39.46774 175.14567 10005 ft 75 kts 357°
2026-04-19 05:12 -39.46256 175.14752 10010 ft 79 kts 357°
2026-04-19 05:13 -39.45724 175.14931 10009 ft 82 kts 356°
2026-04-19 05:13 -39.45177 175.15112 10011 ft 80 kts 357°
2026-04-19 05:13 -39.44635 175.15286 10011 ft 80 kts 357°
2026-04-19 05:13 -39.44105 175.15457 10000 ft 76 kts 357°
2026-04-19 05:14 -39.43604 175.15617 10000 ft 75 kts 356°
2026-04-19 05:14 -39.43080 175.15783 9994 ft 80 kts 356°
2026-04-19 05:14 -39.42534 175.15945 9998 ft 83 kts 357°
2026-04-19 05:14 -39.41979 175.16105 10003 ft 81 kts 356°
2026-04-19 05:15 -39.41424 175.16262 10006 ft 83 kts 356°
2026-04-19 05:15 -39.40864 175.16421 10007 ft 82 kts 356°
2026-04-19 05:15 -39.40309 175.16579 10003 ft 81 kts 357°
2026-04-19 05:15 -39.39764 175.16729 10000 ft 79 kts 356°
2026-04-19 05:16 -39.39232 175.16878 10000 ft 77 kts 356°
2026-04-19 05:16 -39.38709 175.17034 10013 ft 80 kts 356°
2026-04-19 05:16 -39.38137 175.17185 9999 ft 85 kts 357°
2026-04-19 05:16 -39.37561 175.17325 10004 ft 84 kts 357°
2026-04-19 05:17 -39.36990 175.17466 10009 ft 84 kts 356°
2026-04-19 05:17 -39.36416 175.17613 10007 ft 83 kts 357°
2026-04-19 05:17 -39.35858 175.17747 10006 ft 81 kts 356°
2026-04-19 05:17 -39.35302 175.17890 10006 ft 81 kts 356°
2026-04-19 05:18 -39.34755 175.18032 10002 ft 82 kts 356°
2026-04-19 05:18 -39.34201 175.18171 10006 ft 80 kts 356°
2026-04-19 05:18 -39.33645 175.18308 10007 ft 83 kts 356°
2026-04-19 05:18 -39.33079 175.18445 10001 ft 82 kts 356°
2026-04-19 05:19 -39.32528 175.18576 10005 ft 80 kts 356°
2026-04-19 05:19 -39.31984 175.18702 10000 ft 79 kts 356°
2026-04-19 05:19 -39.31450 175.18834 9991 ft 77 kts 356°
2026-04-19 05:19 -39.30931 175.18965 9995 ft 76 kts 356°
2026-04-19 05:20 -39.30407 175.19100 9992 ft 78 kts 356°
2026-04-19 05:20 -39.29867 175.19233 9998 ft 80 kts 356°
2026-04-19 05:20 -39.29302 175.19356 9998 ft 83 kts 356°
2026-04-19 05:20 -39.28734 175.19484 9997 ft 83 kts 356°
2026-04-19 05:21 -39.28170 175.19608 9995 ft 82 kts 356°
2026-04-19 05:21 -39.27616 175.19677 9999 ft 79 kts 349°
2026-04-19 05:21 -39.27068 175.19656 9995 ft 78 kts 349°
2026-04-19 05:21 -39.26518 175.19642 9995 ft 79 kts 349°
2026-04-19 05:22 -39.25969 175.19626 9992 ft 79 kts 349°
2026-04-19 05:22 -39.25415 175.19607 9995 ft 81 kts 349°
2026-04-19 05:22 -39.24855 175.19584 9994 ft 82 kts 349°
2026-04-19 05:22 -39.24288 175.19559 9994 ft 81 kts 349°
2026-04-19 05:23 -39.23717 175.19534 9987 ft 82 kts 349°
2026-04-19 05:23 -39.23157 175.19510 9990 ft 80 kts 349°
2026-04-19 05:23 -39.22586 175.19481 9979 ft 82 kts 349°
2026-04-19 05:23 -39.22044 175.19460 9997 ft 77 kts 349°
2026-04-19 05:24 -39.21486 175.19430 9986 ft 82 kts 349°
2026-04-19 05:24 -39.20937 175.19402 9994 ft 78 kts 349°
2026-04-19 05:24 -39.20386 175.19367 9996 ft 81 kts 349°
2026-04-19 05:24 -39.19836 175.19332 9985 ft 75 kts 349°
2026-04-19 05:25 -39.19317 175.19294 9990 ft 76 kts 349°
2026-04-19 05:25 -39.18781 175.19262 9997 ft 79 kts 349°
2026-04-19 05:25 -39.18221 175.19227 9996 ft 81 kts 349°
2026-04-19 05:25 -39.17665 175.19199 9999 ft 80 kts 349°
2026-04-19 05:26 -39.17105 175.19164 9998 ft 81 kts 349°
2026-04-19 05:26 -39.16554 175.19118 10003 ft 79 kts 348°
2026-04-19 05:26 -39.15992 175.19066 9993 ft 82 kts 349°
2026-04-19 05:26 -39.15620 175.19031 9996 ft 81 kts 348°
2026-04-19 05:27 -39.15060 175.18981 9993 ft 80 kts 349°
2026-04-19 05:27 -39.14301 175.18912 9991 ft 84 kts 349°
2026-04-19 05:27 -39.13915 175.18879 9994 ft 84 kts 349°
2026-04-19 05:27 -39.13336 175.18829 9993 ft 82 kts 349°
2026-04-19 05:28 -39.12760 175.18783 9989 ft 83 kts 348°
2026-04-19 05:28 -39.12192 175.18743 9996 ft 82 kts 349°
2026-04-19 05:28 -39.11615 175.18687 9995 ft 84 kts 349°
2026-04-19 05:28 -39.11033 175.18626 9989 ft 83 kts 350°
2026-04-19 05:29 -39.10471 175.18555 9990 ft 80 kts 348°
2026-04-19 05:29 -39.09908 175.18495 9993 ft 82 kts 348°
2026-04-19 05:29 -39.09331 175.18438 9992 ft 83 kts 349°
2026-04-19 05:29 -39.08752 175.18379 9996 ft 84 kts 348°
2026-04-19 05:30 -39.08167 175.18321 9994 ft 84 kts 348°
2026-04-19 05:30 -39.07585 175.18263 9993 ft 83 kts 348°
2026-04-19 05:30 -39.07018 175.18212 9992 ft 80 kts 348°
2026-04-19 05:30 -39.06472 175.18174 9987 ft 77 kts 349°
2026-04-19 05:31 -39.05930 175.18130 9984 ft 79 kts 348°
2026-04-19 05:31 -39.05361 175.18071 9990 ft 84 kts 348°
2026-04-19 05:31 -39.04778 175.18015 9997 ft 86 kts 349°
2026-04-19 05:31 -38.72314 175.10142 9980 ft 86 kts 346°
2026-04-19 05:32 -38.71719 175.10073 9976 ft 85 kts 348°
2026-04-19 05:32 -38.71136 175.10017 9986 ft 82 kts 349°
2026-04-19 05:32 -38.70560 175.09959 9984 ft 84 kts 348°
2026-04-19 05:32 -38.69995 175.09905 9982 ft 82 kts 348°
2026-04-19 05:33 -38.69432 175.09849 9986 ft 82 kts 348°
2026-04-19 05:33 -38.68868 175.09783 9983 ft 81 kts 348°
2026-04-19 05:33 -38.68293 175.09711 9988 ft 84 kts 348°
2026-04-19 05:33 -38.67707 175.09637 9989 ft 84 kts 348°
2026-04-19 05:34 -38.67119 175.09562 9988 ft 85 kts 348°
2026-04-19 05:34 -38.66532 175.09487 9988 ft 85 kts 348°
2026-04-19 05:34 -38.65940 175.09412 9985 ft 86 kts 348°
2026-04-19 05:34 -38.65352 175.09342 9985 ft 84 kts 348°
2026-04-19 05:35 -38.64768 175.09267 9986 ft 85 kts 348°
2026-04-19 05:35 -38.64180 175.09191 9992 ft 85 kts 348°
2026-04-19 05:35 -38.63590 175.09112 9989 ft 86 kts 348°
2026-04-19 05:35 -38.63000 175.09034 9983 ft 84 kts 348°
2026-04-19 05:36 -38.62418 175.08965 9984 ft 85 kts 348°
2026-04-19 05:36 -38.61830 175.08895 9988 ft 85 kts 348°
2026-04-19 05:36 -38.61249 175.08813 9983 ft 81 kts 348°
2026-04-19 05:36 -38.60687 175.08733 9982 ft 82 kts 348°
2026-04-19 05:37 -38.60120 175.08654 9980 ft 82 kts 348°
2026-04-19 05:37 -38.59547 175.08572 9985 ft 84 kts 348°
2026-04-19 05:37 -38.58966 175.08495 9983 ft 81 kts 348°
2026-04-19 05:37 -38.58459 175.08437 9972 ft 71 kts 348°
2026-04-19 05:38 -38.57962 175.08375 9969 ft 74 kts 348°
2026-04-19 05:38 -38.57435 175.08306 9977 ft 77 kts 348°
2026-04-19 05:38 -38.56907 175.08234 9972 ft 74 kts 348°
2026-04-19 05:38 -38.56394 175.08164 9972 ft 75 kts 348°
2026-04-19 05:39 -38.55876 175.08096 9967 ft 74 kts 348°
2026-04-19 05:39 -38.55387 175.08043 9970 ft 67 kts 348°
2026-04-19 05:39 -38.54919 175.07994 9973 ft 69 kts 348°
2026-04-19 05:39 -38.54409 175.07927 9875 ft 83 kts 348°
2026-04-19 05:40 -38.53811 175.07829 9687 ft 87 kts 348°
2026-04-19 05:40 -38.53195 175.07717 9516 ft 92 kts 348°
2026-04-19 05:40 -38.52537 175.07590 9320 ft 99 kts 348°
2026-04-19 05:40 -38.51841 175.07456 9113 ft 102 kts 348°
2026-04-19 05:41 -38.51135 175.07320 8913 ft 104 kts 348°
2026-04-19 05:41 -38.50409 175.07180 8717 ft 107 kts 348°
2026-04-19 05:41 -38.49659 175.07031 8505 ft 109 kts 349°
2026-04-19 05:41 -38.48911 175.06862 8312 ft 110 kts 347°
2026-04-19 05:42 -38.48149 175.06706 8103 ft 111 kts 348°
2026-04-19 05:42 -38.47387 175.06562 7980 ft 108 kts 348°
2026-04-19 05:42 -38.46677 175.06424 7980 ft 103 kts 348°
2026-04-19 05:42 -38.45975 175.06283 7976 ft 101 kts 348°
2026-04-19 05:43 -38.45289 175.06144 7971 ft 99 kts 348°
2026-04-19 05:43 -38.44615 175.06008 7969 ft 97 kts 348°
2026-04-19 05:43 -38.43952 175.05879 7969 ft 95 kts 348°
2026-04-19 05:43 -38.43299 175.05756 7969 ft 95 kts 347°
2026-04-19 05:44 -38.42639 175.05634 7967 ft 96 kts 347°
2026-04-19 05:44 -38.41981 175.05510 7973 ft 96 kts 348°
2026-04-19 05:44 -38.41326 175.05388 7970 ft 95 kts 348°
2026-04-19 05:44 -38.40670 175.05300 7965 ft 95 kts 353°
2026-04-19 05:45 -38.40007 175.05320 7965 ft 97 kts 355°
2026-04-19 05:45 -38.39334 175.05330 7969 ft 97 kts 354°
2026-04-19 05:45 -38.38662 175.05344 7963 ft 96 kts 354°
2026-04-19 05:45 -38.37997 175.05359 7967 ft 95 kts 355°
2026-04-19 05:46 -38.37337 175.05369 7964 ft 96 kts 355°
2026-04-19 05:46 -38.36669 175.05378 7969 ft 96 kts 354°
2026-04-19 05:46 -38.36000 175.05383 7963 ft 96 kts 354°
2026-04-19 05:46 -38.35333 175.05389 7968 ft 96 kts 355°
2026-04-19 05:47 -38.34671 175.05394 7963 ft 95 kts 354°
2026-04-19 05:47 -38.34010 175.05400 7968 ft 95 kts 354°
2026-04-19 05:47 -38.19911 175.03716 7969 ft 10539 kts 354°
2026-04-19 05:47 -37.94277 175.00572 7960 ft 97 kts 354°
2026-04-19 05:48 -37.93604 175.00588 7964 ft 97 kts 354°
2026-04-19 05:48 -37.92933 175.00602 7966 ft 98 kts 354°
2026-04-19 05:48 -37.92265 175.00612 7976 ft 95 kts 354°
2026-04-19 05:48 -37.91615 175.00635 7992 ft 92 kts 355°
2026-04-19 05:49 -37.90967 175.00652 7992 ft 94 kts 354°
2026-04-19 05:49 -37.90317 175.00667 7988 ft 92 kts 355°
2026-04-19 05:49 -37.89670 175.00675 7994 ft 94 kts 354°
2026-04-19 05:49 -37.89008 175.00679 7993 ft 97 kts 354°
2026-04-19 05:50 -37.88334 175.00684 7993 ft 97 kts 354°
2026-04-19 05:50 -37.87673 175.00698 7998 ft 94 kts 354°
2026-04-19 05:50 -37.87014 175.00699 7995 ft 96 kts 354°
2026-04-19 05:50 -37.86351 175.00700 7997 ft 96 kts 354°
2026-04-19 05:51 -37.85680 175.00700 7998 ft 97 kts 354°
2026-04-19 05:51 -37.85008 175.00693 8000 ft 97 kts 354°
2026-04-19 05:51 -37.84329 175.00686 8004 ft 98 kts 354°
2026-04-19 05:51 -37.83649 175.00679 8001 ft 98 kts 354°
2026-04-19 05:52 -37.82970 175.00675 8002 ft 97 kts 354°
2026-04-19 05:52 -37.82298 175.00674 8001 ft 97 kts 354°
2026-04-19 05:52 -37.81625 175.00673 8002 ft 97 kts 354°
2026-04-19 05:52 -37.80939 175.00663 8002 ft 99 kts 354°
2026-04-19 05:53 -37.80247 175.00647 8002 ft 100 kts 354°
2026-04-19 05:53 -37.79557 175.00627 8005 ft 99 kts 353°
2026-04-19 05:53 -37.78874 175.00614 7994 ft 99 kts 354°
2026-04-19 05:53 -37.78186 175.00609 7999 ft 99 kts 354°
2026-04-19 05:54 -37.77494 175.00634 7986 ft 102 kts
2026-04-19 05:54 -37.76815 175.00966 7989 ft 105 kts 12°
2026-04-19 05:54 -37.76136 175.01310 7987 ft 105 kts 12°
2026-04-19 05:54 -37.75458 175.01654 7986 ft 105 kts 12°
2026-04-19 05:55 -37.74783 175.01994 7988 ft 104 kts 12°
2026-04-19 05:55 -37.74107 175.02328 7995 ft 105 kts 12°
2026-04-19 05:55 -37.73432 175.02657 7989 ft 103 kts 11°
2026-04-19 05:55 -37.72764 175.02996 7994 ft 104 kts 12°
2026-04-19 05:56 -37.72090 175.03336 7993 ft 104 kts 12°
2026-04-19 05:56 -37.71413 175.03670 7995 ft 104 kts 11°
2026-04-19 05:56 -37.70730 175.03997 7996 ft 105 kts 12°
2026-04-19 05:56 -37.70048 175.04330 7988 ft 104 kts 11°
2026-04-19 05:57 -37.69379 175.04665 7992 ft 103 kts 12°
2026-04-19 05:57 -37.68718 175.04995 7996 ft 103 kts 12°
2026-04-19 05:57 -37.68046 175.05328 7991 ft 104 kts 12°
2026-04-19 05:57 -37.67367 175.05665 7990 ft 106 kts 12°
2026-04-19 05:58 -37.66687 175.06002 7992 ft 104 kts 12°
2026-04-19 05:58 -37.66014 175.06333 7996 ft 104 kts 11°
2026-04-19 05:58 -37.65340 175.06668 7994 ft 104 kts 12°
2026-04-19 05:58 -37.64666 175.07008 7993 ft 105 kts 12°
2026-04-19 05:59 -37.63985 175.07346 7995 ft 105 kts 12°
2026-04-19 05:59 -37.63306 175.07674 7999 ft 104 kts 11°
2026-04-19 05:59 -37.62626 175.08001 7995 ft 104 kts 12°
2026-04-19 05:59 -37.61949 175.08332 7995 ft 103 kts 12°
2026-04-19 06:00 -37.61283 175.08663 7995 ft 103 kts 11°
2026-04-19 06:00 -37.60614 175.08991 7998 ft 104 kts 12°
2026-04-19 06:00 -37.59939 175.09315 7998 ft 104 kts 11°
2026-04-19 06:00 -37.59263 175.09640 7998 ft 104 kts 11°
2026-04-19 06:01 -37.58588 175.09966 7999 ft 104 kts 11°
2026-04-19 06:01 -37.57912 175.10293 7994 ft 104 kts 11°
2026-04-19 06:01 -37.57236 175.10619 7995 ft 104 kts 12°
2026-04-19 06:01 -37.56560 175.10942 7996 ft 104 kts 11°
2026-04-19 06:02 -37.55883 175.11269 7993 ft 104 kts 11°
2026-04-19 06:02 -37.55207 175.11598 7992 ft 104 kts 11°
2026-04-19 06:02 -37.54542 175.11922 7990 ft 103 kts 12°
2026-04-19 06:02 -37.53869 175.12242 7994 ft 103 kts 11°
2026-04-19 06:03 -37.53198 175.12562 7990 ft 103 kts 11°
2026-04-19 06:03 -37.52527 175.12889 7992 ft 104 kts 11°
2026-04-19 06:03 -37.51852 175.13225 7987 ft 104 kts 12°
2026-04-19 06:03 -37.51178 175.13561 7987 ft 104 kts 11°
2026-04-19 06:04 -37.50505 175.13891 7987 ft 104 kts 11°
2026-04-19 06:04 -37.49834 175.14228 7988 ft 104 kts 11°
2026-04-19 06:04 -37.49162 175.14561 7991 ft 104 kts 12°
2026-04-19 06:04 -37.48490 175.14892 7991 ft 104 kts 11°
2026-04-19 06:05 -37.47819 175.15228 7990 ft 104 kts 11°
2026-04-19 06:05 -37.47147 175.15564 7996 ft 104 kts 12°
2026-04-19 06:05 -37.46472 175.15890 7993 ft 104 kts 11°
2026-04-19 06:05 -37.45803 175.16205 7993 ft 104 kts 11°
2026-04-19 06:06 -37.45127 175.16530 7994 ft 104 kts 11°
2026-04-19 06:06 -37.44452 175.16866 7987 ft 105 kts 11°
2026-04-19 06:06 -37.43774 175.17206 7984 ft 105 kts 11°
2026-04-19 06:06 -37.43077 175.17546 7990 ft 109 kts 11°
2026-04-19 06:07 -37.42362 175.17881 8001 ft 110 kts 11°
2026-04-19 06:07 -37.41645 175.18216 8003 ft 110 kts 11°
2026-04-19 06:07 -37.40928 175.18552 8000 ft 111 kts 11°
2026-04-19 06:07 -37.40197 175.18888 8002 ft 111 kts 11°
2026-04-19 06:08 -37.39469 175.19220 7997 ft 112 kts 11°
2026-04-19 06:08 -37.38739 175.19559 8003 ft 112 kts 11°
2026-04-19 06:08 -37.38012 175.19898 7999 ft 112 kts 11°
2026-04-19 06:08 -37.37284 175.20236 8001 ft 111 kts 11°
2026-04-19 06:09 -37.36558 175.20567 8000 ft 111 kts 11°
2026-04-19 06:09 -37.35841 175.20895 7999 ft 112 kts 11°
2026-04-19 06:09 -37.35114 175.21235 7999 ft 111 kts 11°
2026-04-19 06:09 -37.34392 175.21575 8001 ft 111 kts 11°
2026-04-19 06:10 -37.33668 175.21914 7998 ft 111 kts 11°
2026-04-19 06:10 -37.33079 175.22188 7992 ft 111 kts 11°
2026-04-19 06:10 -37.32325 175.22531 7847 ft 121 kts 11°
2026-04-19 06:10 -37.31511 175.22892 7653 ft 126 kts 11°
2026-04-19 06:11 -37.30674 175.23258 7459 ft 128 kts 11°
2026-04-19 06:11 -37.29822 175.23625 7262 ft 130 kts 11°
2026-04-19 06:11 -37.28965 175.23994 7073 ft 131 kts 11°
2026-04-19 06:12 -37.27248 175.24738 6681 ft 132 kts 11°
2026-04-19 06:12 -37.26379 175.25112 6487 ft 132 kts 11°
2026-04-19 06:12 -37.25519 175.25479 6292 ft 133 kts 11°
2026-04-19 06:12 -37.24654 175.25848 6108 ft 132 kts 11°
2026-04-19 06:13 -37.23792 175.26217 6008 ft 127 kts 11°
2026-04-19 06:13 -37.22973 175.26573 6002 ft 122 kts 10°
2026-04-19 06:13 -37.22178 175.26926 6000 ft 121 kts 11°
2026-04-19 06:13 -37.21388 175.27278 5997 ft 120 kts 11°
2026-04-19 06:14 -37.20598 175.27623 5995 ft 120 kts 11°
2026-04-19 06:14 -37.19824 175.27962 5994 ft 119 kts 11°
2026-04-19 06:14 -37.19041 175.28301 5996 ft 119 kts 11°
2026-04-19 06:14 -37.18271 175.28639 5997 ft 118 kts 11°
2026-04-19 06:15 -37.17499 175.28980 5995 ft 118 kts 10°
2026-04-19 06:15 -37.16728 175.29324 5993 ft 118 kts 10°
2026-04-19 06:15 -37.15957 175.29668 5980 ft 118 kts 11°
2026-04-19 06:15 -37.15433 175.29896 5899 ft 122 kts 11°
2026-04-19 06:16 -37.14616 175.30246 5775 ft 125 kts 10°
2026-04-19 06:16 -37.13786 175.30601 5647 ft 127 kts 11°
2026-04-19 06:16 -37.12951 175.30952 5523 ft 127 kts 10°
2026-04-19 06:16 -37.12114 175.31303 5395 ft 127 kts 10°
2026-04-19 06:17 -37.11273 175.31654 5269 ft 127 kts 11°
2026-04-19 06:17 -37.10427 175.31999 5140 ft 128 kts 10°
2026-04-19 06:17 -37.09578 175.32344 5018 ft 129 kts 10°
2026-04-19 06:17 -37.08727 175.32691 4892 ft 129 kts 10°
2026-04-19 06:18 -37.07878 175.33036 4768 ft 128 kts 10°
2026-04-19 06:18 -37.07026 175.33381 4640 ft 129 kts 10°
2026-04-19 06:18 -37.06178 175.33724 4522 ft 125 kts 10°
2026-04-19 06:18 -37.05360 175.34063 4325 ft 126 kts 10°
2026-04-19 06:19 -37.04527 175.34405 4122 ft 127 kts 10°
2026-04-19 06:19 -37.03679 175.34742 3924 ft 129 kts 11°
2026-04-19 06:19 -37.02827 175.35067 3718 ft 128 kts 10°
2026-04-19 06:19 -37.01976 175.35388 3523 ft 129 kts 10°
2026-04-19 06:20 -37.01110 175.35610 3313 ft 125 kts 353°
2026-04-19 06:20 -37.00260 175.35423 3113 ft 124 kts 350°
2026-04-19 06:20 -36.99403 175.35337 2997 ft 120 kts 345°
2026-04-19 06:20 -36.98762 175.34740 2989 ft 116 kts 310°
2026-04-19 06:21 -36.98359 175.33881 2990 ft 113 kts 307°
2026-04-19 06:21 -36.97937 175.33048 2929 ft 116 kts 308°
2026-04-19 06:21 -36.97485 175.32190 2806 ft 120 kts 309°
2026-04-19 06:21 -36.97018 175.31317 2684 ft 121 kts 309°
2026-04-19 06:22 -36.96542 175.30434 2548 ft 123 kts 309°
2026-04-19 06:22 -36.96059 175.29541 2433 ft 125 kts 309°
2026-04-19 06:22 -36.95571 175.28641 2309 ft 125 kts 310°
2026-04-19 06:22 -36.95093 175.27759 2299 ft 120 kts 309°
2026-04-19 06:23 -36.94638 175.26919 2304 ft 117 kts 309°
2026-04-19 06:23 -36.94178 175.26074 2309 ft 118 kts 309°
2026-04-19 06:23 -36.93726 175.25239 2306 ft 115 kts 310°
2026-04-19 06:23 -36.93282 175.24423 2308 ft 112 kts 310°
2026-04-19 06:24 -36.93065 175.23473 2284 ft 123 kts 273°
2026-04-19 06:24 -36.93349 175.22431 2289 ft 127 kts 257°
2026-04-19 06:24 -36.93662 175.21406 2290 ft 126 kts 259°
2026-04-19 06:24 -36.93963 175.20379 2287 ft 125 kts 259°
2026-04-19 06:25 -36.94258 175.19362 2292 ft 124 kts 258°
2026-04-19 06:25 -36.94547 175.18354 2230 ft 126 kts 260°
2026-04-19 06:25 -36.94850 175.17288 2119 ft 133 kts 259°
2026-04-19 06:25 -36.95164 175.16201 2053 ft 133 kts 258°
2026-04-19 06:26 -36.95478 175.15116 1973 ft 132 kts 258°
2026-04-19 06:26 -36.95774 175.14093 1893 ft 120 kts 260°
2026-04-19 06:26 -36.96051 175.13130 1805 ft 115 kts 259°
2026-04-19 06:26 -36.96317 175.12199 1720 ft 112 kts 259°
2026-04-19 06:27 -36.96575 175.11302 1635 ft 107 kts 259°
2026-04-19 06:27 -36.96826 175.10420 1537 ft 107 kts 261°
2026-04-19 06:27 -36.97077 175.09541 1459 ft 110 kts 261°
2026-04-19 06:27 -36.97458 175.08678 1376 ft 114 kts 249°
2026-04-19 06:28 -36.97848 175.07822 1296 ft 113 kts 249°
2026-04-19 06:28 -36.98232 175.06976 1257 ft 113 kts 252°
2026-04-19 06:28 -36.98628 175.06093 1239 ft 121 kts 249°
2026-04-19 06:28 -36.99055 175.05154 1222 ft 127 kts 251°
2026-04-19 06:29 -36.99497 175.04181 1198 ft 128 kts 249°
2026-04-19 06:29 -36.99936 175.03218 1166 ft 124 kts 249°
2026-04-19 06:29 -37.00347 175.02319 1084 ft 114 kts 248°
2026-04-19 06:29 -37.00736 175.01461 945 ft 109 kts 249°
2026-04-19 06:30 -37.01101 175.00655 809 ft 107 kts 247°
2026-04-19 06:30 -37.01443 174.99904 659 ft 95 kts 246°
2026-04-19 06:30 -37.01768 174.99200 518 ft 92 kts 240°
2026-04-19 06:30 -37.02145 174.98676 348 ft 75 kts 229°
2026-04-19 06:31 -37.02484 174.98221 214 ft 68 kts 227°
2026-04-19 06:31 -37.02799 174.97811 115 ft 62 kts 230°
2026-04-19 06:31 -37.03051 174.97492 107 ft 41 kts 225°
2026-04-19 06:31 -37.03215 174.97283 107 ft 26 kts 226°
2026-04-19 06:32 -37.03285 174.97226 106 ft 3 kts 111°
2026-04-19 06:32 -37.03300 174.97246 106 ft 0 kts 138°
2026-04-19 06:32 -37.03294 174.97282 105 ft 10 kts 46°
2026-04-19 06:33 -37.03247 174.97340 106 ft 10 kts 42°
2026-04-19 06:33 -37.03211 174.97386 106 ft 0 kts 46°
2026-04-19 06:33 -37.03213 174.97390 106 ft 4 kts 229°
2026-04-19 06:33 -37.03227 174.97368 106 ft 10 kts 226°
2026-04-19 06:34 -37.03277 174.97333 105 ft 10 kts 126°
2026-04-19 06:34 -37.03333 174.97414 104 ft 1 kts 351°
2026-04-19 06:34 -37.03326 174.97404 104 ft 0 kts 292°